createdAt,value
2023-01-15T00:02:11.162Z,99484.38
2023-01-15T00:04:38.796Z,99482.16
2023-01-15T00:07:06.238Z,99482.00
2023-01-15T00:09:33.878Z,99488.06
2023-01-15T00:12:01.337Z,99488.28
2023-01-15T00:14:30.528Z,99492.47
2023-01-15T00:16:57.971Z,99496.00
2023-01-15T00:19:25.517Z,99504.47
2023-01-15T00:21:53.019Z,99502.06
2023-01-15T00:24:20.511Z,99492.13
2023-01-15T00:26:48.567Z,99490.25
2023-01-15T00:29:16.905Z,99496.66
2023-01-15T00:31:53.762Z,99498.56
2023-01-15T00:34:21.506Z,99497.03
2023-01-15T00:36:48.973Z,99508.16
2023-01-15T00:39:16.565Z,99508.31
2023-01-15T00:41:44.002Z,99502.06
2023-01-15T00:44:11.544Z,99503.44
2023-01-15T00:46:39.060Z,99497.84
2023-01-15T00:49:08.325Z,99499.19
2023-01-15T00:51:36.686Z,99496.22
2023-01-15T00:54:05.685Z,99493.97
2023-01-15T00:56:33.177Z,99495.03
2023-01-15T00:59:01.994Z,99496.91
2023-01-15T01:01:30.246Z,99499.06
2023-01-15T01:03:57.753Z,99501.91
2023-01-15T01:06:30.051Z,99496.00
2023-01-15T01:08:57.973Z,99500.06
2023-01-15T01:11:26.403Z,99490.97
2023-01-15T01:13:54.767Z,99504.75
2023-01-15T01:16:29.681Z,99501.81
2023-01-15T01:18:57.881Z,99497.03
2023-01-15T01:21:26.280Z,99511.53
2023-01-15T01:23:55.377Z,99504.09
2023-01-15T01:26:22.937Z,99498.72
2023-01-15T01:28:51.403Z,99501.09
2023-01-15T01:31:19.976Z,99494.97
2023-01-15T01:33:49.355Z,99485.88
2023-01-15T01:36:17.426Z,99492.31
2023-01-15T01:38:47.584Z,99486.75
2023-01-15T01:41:16.576Z,99483.19
2023-01-15T01:43:58.018Z,99483.00
2023-01-15T01:46:27.331Z,99480.31
2023-01-15T01:48:57.881Z,99481.00
2023-01-15T01:51:30.112Z,99477.59
2023-01-15T01:53:59.932Z,99476.28
2023-01-15T01:56:29.564Z,99473.75
2023-01-15T01:58:56.947Z,99469.38
2023-01-15T02:01:26.535Z,99474.78
2023-01-15T02:03:54.392Z,99466.16
2023-01-15T02:06:24.322Z,99464.28
2023-01-15T02:08:52.929Z,99465.28
2023-01-15T02:11:22.763Z,99455.53
2023-01-15T02:13:59.595Z,99459.59
2023-01-15T02:16:33.673Z,99452.72
2023-01-15T02:19:13.907Z,99448.81
2023-01-15T02:21:51.454Z,99449.66
2023-01-15T02:24:28.833Z,99449.00
2023-01-15T02:27:05.206Z,99447.44
2023-01-15T02:29:45.178Z,99438.69
2023-01-15T02:32:19.175Z,99431.25
2023-01-15T02:34:53.264Z,99430.75
2023-01-15T02:37:26.306Z,99435.16
2023-01-15T02:39:56.512Z,99425.88
2023-01-15T02:42:29.985Z,99425.91
2023-01-15T02:45:01.809Z,99420.88
2023-01-15T02:47:34.619Z,99417.00
2023-01-15T02:50:08.033Z,99421.03
2023-01-15T02:52:43.602Z,99421.84
2023-01-15T02:55:16.703Z,99432.78
2023-01-15T02:57:48.947Z,99425.09
2023-01-15T03:00:21.979Z,99429.63
2023-01-15T03:02:59.091Z,99421.66
2023-01-15T03:05:31.463Z,99420.19
2023-01-15T03:08:01.331Z,99427.97
2023-01-15T03:10:42.282Z,99431.94
2023-01-15T03:13:17.694Z,99420.63
2023-01-15T03:15:56.102Z,99431.94
2023-01-15T03:18:27.613Z,99431.13
2023-01-15T03:21:02.803Z,99426.25
2023-01-15T03:23:31.059Z,99425.91
2023-01-15T03:25:58.689Z,99417.88
2023-01-15T03:28:33.934Z,99411.72
2023-01-15T03:31:01.815Z,99414.94
2023-01-15T03:33:30.611Z,99422.50
2023-01-15T03:35:59.918Z,99423.00
2023-01-15T03:38:41.085Z,99427.94
2023-01-15T03:41:25.071Z,99430.91
2023-01-15T03:44:08.592Z,99424.47
2023-01-15T03:47:01.143Z,99425.63
2023-01-15T03:49:40.283Z,99436.66
2023-01-15T03:52:19.643Z,99434.00
2023-01-15T03:54:58.113Z,99439.56
2023-01-15T03:57:30.815Z,99440.41
2023-01-15T04:00:04.056Z,99447.19
2023-01-15T04:02:46.019Z,99443.09
2023-01-15T04:05:16.454Z,99447.94
2023-01-15T04:07:48.618Z,99448.63
2023-01-15T04:10:17.548Z,99456.56
2023-01-15T04:12:47.339Z,99453.03
2023-01-15T04:15:17.373Z,99453.91
2023-01-15T04:17:45.403Z,99452.84
2023-01-15T04:20:14.583Z,99454.75
2023-01-15T04:22:43.954Z,99452.66
2023-01-15T04:25:11.805Z,99466.84
2023-01-15T04:27:39.585Z,99455.56
2023-01-15T04:30:08.651Z,99456.44
2023-01-15T04:32:37.952Z,99462.66
2023-01-15T04:35:06.518Z,99456.72
2023-01-15T04:37:34.628Z,99466.88
2023-01-15T04:40:02.379Z,99468.78
2023-01-15T04:42:30.594Z,99473.50
2023-01-15T04:44:58.334Z,99477.31
2023-01-15T04:47:26.072Z,99488.25
2023-01-15T04:49:55.622Z,99486.25
2023-01-15T04:52:23.128Z,99486.25
2023-01-15T04:54:51.045Z,99498.69
2023-01-15T04:57:18.668Z,99501.78
2023-01-15T04:59:46.531Z,99507.81
2023-01-15T05:02:15.376Z,99494.97
2023-01-15T05:04:43.890Z,99508.31
2023-01-15T05:07:12.989Z,99503.78
2023-01-15T05:09:40.455Z,99508.16
2023-01-15T05:12:09.205Z,99514.91
2023-01-15T05:14:37.232Z,99515.75
2023-01-15T05:17:04.841Z,99526.38
2023-01-15T05:19:32.510Z,99522.31
2023-01-15T05:22:00.593Z,99536.84
2023-01-15T05:24:29.825Z,99535.81
2023-01-15T05:26:57.450Z,99542.03
2023-01-15T05:29:25.211Z,99536.13
2023-01-15T05:31:52.887Z,99542.91
2023-01-15T05:34:20.667Z,99542.38
2023-01-15T05:36:48.195Z,99538.81
2023-01-15T05:39:15.782Z,99539.34
2023-01-15T05:41:44.839Z,99549.63
2023-01-15T05:44:13.452Z,99544.41
2023-01-15T05:46:42.763Z,99553.34
2023-01-15T05:49:12.426Z,99552.03
2023-01-15T05:51:40.040Z,99542.75
2023-01-15T05:54:09.740Z,99558.41
2023-01-15T05:56:38.125Z,99557.72
2023-01-15T05:59:08.151Z,99565.16
2023-01-15T06:01:35.938Z,99555.38
2023-01-15T06:04:06.046Z,99547.13
2023-01-15T06:06:34.385Z,99553.88
2023-01-15T06:09:02.975Z,99556.25
2023-01-15T06:11:30.432Z,99546.97
2023-01-15T06:13:58.206Z,99554.34
2023-01-15T06:16:27.646Z,99562.97
2023-01-15T06:18:55.114Z,99559.09
2023-01-15T06:21:23.435Z,99553.34
2023-01-15T06:23:54.246Z,99551.00
2023-01-15T06:26:22.898Z,99562.81
2023-01-15T06:28:51.958Z,99563.63
2023-01-15T06:31:21.142Z,99565.00
2023-01-15T06:33:51.066Z,99555.03
2023-01-15T06:36:21.792Z,99559.25
2023-01-15T06:38:50.047Z,99565.50
2023-01-15T06:41:20.363Z,99564.34
2023-01-15T06:43:47.756Z,99567.69
2023-01-15T06:46:17.701Z,99567.50
2023-01-15T06:48:44.870Z,99571.72
2023-01-15T06:51:13.823Z,99573.59
2023-01-15T06:53:41.828Z,99572.75
2023-01-15T06:56:10.079Z,99578.28
2023-01-15T06:58:37.513Z,99574.25
2023-01-15T07:01:11.230Z,99579.66
2023-01-15T07:03:39.836Z,99578.78
2023-01-15T07:06:09.038Z,99585.38
2023-01-15T07:08:38.232Z,99577.13
2023-01-15T07:11:08.252Z,99584.72
2023-01-15T07:13:37.647Z,99586.09
2023-01-15T07:16:06.605Z,99587.09
2023-01-15T07:18:35.188Z,99587.94
2023-01-15T07:21:04.228Z,99586.75
2023-01-15T07:23:32.229Z,99583.53
2023-01-15T07:26:01.969Z,99594.16
2023-01-15T07:28:30.004Z,99603.28
2023-01-15T07:30:59.019Z,99602.28
2023-01-15T07:33:27.486Z,99610.00
2023-01-15T07:35:56.026Z,99601.06
2023-01-15T07:38:23.986Z,99611.00
2023-01-15T07:40:51.930Z,99605.94
2023-01-15T07:43:21.078Z,99619.63
2023-01-15T07:45:49.056Z,99613.38
2023-01-15T07:48:17.230Z,99607.81
2023-01-15T07:50:45.830Z,99610.00
2023-01-15T07:53:13.562Z,99610.38
2023-01-15T07:55:42.445Z,99606.63
2023-01-15T07:58:10.567Z,99606.28
2023-01-15T08:00:41.831Z,99598.34
2023-01-15T08:03:10.100Z,99595.34
2023-01-15T08:05:37.645Z,99607.16
2023-01-15T08:08:06.387Z,99600.91
2023-01-15T08:10:34.500Z,99594.34
2023-01-15T08:13:02.199Z,99590.75
2023-01-15T08:15:34.456Z,99590.75
2023-01-15T08:18:04.262Z,99588.06
2023-01-15T08:20:31.844Z,99582.72
2023-01-15T08:23:01.400Z,99591.13
2023-01-15T08:25:28.870Z,99578.78
2023-01-15T08:28:00.703Z,99583.69
2023-01-15T08:30:28.439Z,99580.16
2023-01-15T08:33:00.977Z,99581.00
2023-01-15T08:35:29.890Z,99579.00
2023-01-15T08:37:57.427Z,99572.75
2023-01-15T08:40:24.934Z,99571.38
2023-01-15T08:42:52.432Z,99572.19
2023-01-15T08:45:20.018Z,99571.22
2023-01-15T08:47:47.960Z,99574.94
2023-01-15T08:50:15.547Z,99563.47
2023-01-15T08:52:44.507Z,99567.84
2023-01-15T08:55:11.993Z,99565.13
2023-01-15T08:57:39.454Z,99565.63
2023-01-15T09:00:08.535Z,99558.72
2023-01-15T09:02:36.035Z,99548.78
2023-01-15T09:05:03.889Z,99546.09
2023-01-15T09:07:31.581Z,99543.22
2023-01-15T09:10:00.575Z,99542.69
2023-01-15T09:12:28.145Z,99538.66
2023-01-15T09:15:01.336Z,99544.06
2023-01-15T09:17:31.805Z,99552.16
2023-01-15T09:19:59.727Z,99549.78
2023-01-15T09:22:27.195Z,99546.25
2023-01-15T09:24:54.608Z,99544.19
2023-01-15T09:27:23.474Z,99552.63
2023-01-15T09:29:51.529Z,99544.38
2023-01-15T09:32:19.037Z,99551.31
2023-01-15T09:34:46.492Z,99551.63
2023-01-15T09:37:14.109Z,99558.34
2023-01-15T09:39:41.531Z,99548.59
2023-01-15T09:42:33.553Z,99553.47
2023-01-15T09:45:17.303Z,99547.41
2023-01-15T09:47:56.424Z,99544.38
2023-01-15T09:50:35.066Z,99552.44
2023-01-15T09:53:27.725Z,99554.19
2023-01-15T09:55:55.434Z,99561.41
2023-01-15T09:58:33.072Z,99567.81
2023-01-15T10:01:03.282Z,99551.81
2023-01-15T10:03:37.351Z,99558.06
2023-01-15T10:06:12.973Z,99560.75
2023-01-15T10:08:45.275Z,99555.84
2023-01-15T10:11:28.188Z,99554.28
2023-01-15T10:14:02.063Z,99554.31
2023-01-15T10:16:33.371Z,99548.91
2023-01-15T10:19:02.394Z,99553.28
2023-01-15T10:21:40.198Z,99561.38
2023-01-15T10:24:15.521Z,99546.53
2023-01-15T10:26:50.506Z,99562.09
2023-01-15T10:29:24.962Z,99558.84
2023-01-15T10:31:55.475Z,99544.84
2023-01-15T10:35:08.812Z,99561.75
2023-01-15T10:37:43.012Z,99548.56
2023-01-15T10:40:25.892Z,99541.81
2023-01-15T10:43:02.324Z,99544.84
2023-01-15T10:45:34.727Z,99550.75
2023-01-15T10:48:12.169Z,99538.78
2023-01-15T10:50:40.155Z,99547.53
2023-01-15T10:53:16.403Z,99545.06
2023-01-15T10:55:47.749Z,99545.88
2023-01-15T10:58:21.957Z,99543.81
2023-01-15T11:00:55.618Z,99547.03
2023-01-15T11:03:33.093Z,99547.22
2023-01-15T11:06:00.580Z,99547.91
2023-01-15T11:09:06.614Z,99559.72
2023-01-15T11:11:20.959Z,99551.63
2023-01-15T11:13:57.436Z,99547.91
2023-01-15T11:16:27.138Z,99560.03
2023-01-15T11:18:56.455Z,99563.56
2023-01-15T11:21:25.049Z,99550.56
2023-01-15T11:23:55.227Z,99553.31
2023-01-15T11:26:25.097Z,99545.22
2023-01-15T11:28:53.455Z,99552.16
2023-01-15T11:31:21.425Z,99555.50
2023-01-15T11:34:00.014Z,99553.81
2023-01-15T11:36:29.779Z,99554.13
2023-01-15T11:38:57.987Z,99555.84
2023-01-15T11:41:30.322Z,99555.16
2023-01-15T11:43:58.863Z,99559.53
2023-01-15T11:46:29.616Z,99559.38
2023-01-15T11:48:58.720Z,99562.91
2023-01-15T11:51:29.253Z,99560.88
2023-01-15T11:54:02.745Z,99562.91
2023-01-15T11:56:32.218Z,99563.41
2023-01-15T11:59:03.234Z,99560.38
2023-01-15T12:01:33.868Z,99557.53
2023-01-15T12:04:06.203Z,99550.97
2023-01-15T12:06:37.058Z,99558.41
2023-01-15T12:09:14.485Z,99542.88
2023-01-15T12:11:55.704Z,99554.03
2023-01-15T12:15:05.327Z,99548.94
2023-01-15T12:17:44.259Z,99552.47
2023-01-15T12:20:21.949Z,99546.25
2023-01-15T12:23:10.678Z,99554.19
2023-01-15T12:25:46.049Z,99547.28
2023-01-15T12:28:17.751Z,99557.41
2023-01-15T12:30:56.372Z,99549.97
2023-01-15T12:33:37.089Z,99550.47
2023-01-15T12:36:12.488Z,99550.63
2023-01-15T12:38:48.870Z,99546.41
2023-01-15T12:41:19.882Z,99549.97
2023-01-15T12:43:52.480Z,99537.81
2023-01-15T12:46:25.568Z,99548.59
2023-01-15T12:48:58.297Z,99546.75
2023-01-15T12:51:35.775Z,99547.63
2023-01-15T12:54:11.499Z,99541.53
2023-01-15T12:56:50.705Z,99546.63
2023-01-15T12:59:23.066Z,99543.41
2023-01-15T13:01:59.247Z,99543.56
2023-01-15T13:04:34.607Z,99543.72
2023-01-15T13:07:12.225Z,99547.28
2023-01-15T13:09:45.912Z,99549.47
2023-01-15T13:12:15.012Z,99548.31
2023-01-15T13:14:45.482Z,99527.38
2023-01-15T13:17:21.736Z,99531.44
2023-01-15T13:20:03.696Z,99524.81
2023-01-15T13:22:38.107Z,99513.53
2023-01-15T13:25:29.996Z,99524.50
2023-01-15T13:28:18.852Z,99525.53
2023-01-15T13:31:00.126Z,99521.97
2023-01-15T13:33:33.047Z,99519.25
2023-01-15T13:36:07.517Z,99510.09
2023-01-15T13:38:42.168Z,99504.09
2023-01-15T13:41:11.057Z,99519.63
2023-01-15T13:43:41.170Z,99513.88
2023-01-15T13:46:12.073Z,99517.25
2023-01-15T13:48:45.515Z,99507.81
2023-01-15T13:51:29.701Z,99502.94
2023-01-15T13:54:00.919Z,99507.97
2023-01-15T13:56:31.217Z,99499.38
2023-01-15T13:59:01.639Z,99512.22
2023-01-15T14:01:35.042Z,99506.78
2023-01-15T14:04:06.461Z,99508.16
2023-01-15T14:06:44.225Z,99514.59
2023-01-15T14:09:27.120Z,99511.50
2023-01-15T14:12:10.359Z,99507.66
2023-01-15T14:14:57.683Z,99515.22
2023-01-15T14:17:57.626Z,99514.75
2023-01-15T14:20:52.037Z,99514.06
2023-01-15T14:23:40.243Z,99517.59
2023-01-15T14:26:17.292Z,99520.97
2023-01-15T14:29:07.437Z,99520.66
2023-01-15T14:31:58.268Z,99524.38
2023-01-15T14:34:30.017Z,99525.19
2023-01-15T14:36:59.404Z,99533.25
2023-01-15T14:39:39.619Z,99528.06
2023-01-15T14:42:14.716Z,99529.75
2023-01-15T14:44:45.211Z,99536.63
2023-01-15T14:47:26.316Z,99533.41
2023-01-15T14:50:16.286Z,99538.00
2023-01-15T14:52:46.352Z,99529.75
2023-01-15T14:55:15.578Z,99530.59
2023-01-15T14:57:58.805Z,99532.97
2023-01-15T15:00:34.510Z,99541.22
2023-01-15T15:03:05.606Z,99539.03
2023-01-15T15:05:34.592Z,99529.78
2023-01-15T15:08:05.174Z,99532.75
2023-01-15T15:10:38.264Z,99539.69
2023-01-15T15:13:13.709Z,99538.38
2023-01-15T15:15:48.664Z,99538.88
2023-01-15T15:18:28.473Z,99543.56
2023-01-15T15:21:07.530Z,99540.34
2023-01-15T15:23:42.937Z,99544.06
2023-01-15T15:26:22.671Z,99543.41
2023-01-15T15:28:59.873Z,99548.81
2023-01-15T15:31:31.455Z,99558.41
2023-01-15T15:33:59.803Z,99559.75
2023-01-15T15:36:30.020Z,99563.31
2023-01-15T15:39:01.943Z,99560.09
2023-01-15T15:41:35.719Z,99559.41
2023-01-15T15:44:12.762Z,99562.47
2023-01-15T15:46:50.079Z,99569.22
2023-01-15T15:49:18.575Z,99566.81
2023-01-15T15:51:47.928Z,99580.31
2023-01-15T15:54:17.843Z,99581.34
2023-01-15T15:56:50.113Z,99581.00
2023-01-15T15:59:28.628Z,99576.97
2023-01-15T16:02:00.213Z,99578.66
2023-01-15T16:04:28.548Z,99571.19
2023-01-15T16:06:56.117Z,99573.59
2023-01-15T16:09:24.408Z,99570.53
2023-01-15T16:11:54.425Z,99572.91
2023-01-15T16:14:25.350Z,99571.56
2023-01-15T16:16:53.948Z,99565.97
2023-01-15T16:19:23.831Z,99569.72
2023-01-15T16:21:53.444Z,99564.81
2023-01-15T16:24:26.717Z,99568.72
2023-01-15T16:27:00.182Z,99563.81
2023-01-15T16:29:31.937Z,99554.19
2023-01-15T16:32:00.050Z,99558.56
2023-01-15T16:34:30.460Z,99553.69
2023-01-15T16:36:58.608Z,99554.00
2023-01-15T16:39:30.633Z,99539.84
2023-01-15T16:42:00.315Z,99542.38
2023-01-15T16:44:36.362Z,99540.03
2023-01-15T16:47:05.372Z,99538.16
2023-01-15T16:49:35.009Z,99534.44
2023-01-15T16:52:03.531Z,99532.41
2023-01-15T16:54:44.344Z,99537.50
2023-01-15T16:57:31.805Z,99531.06
2023-01-15T17:00:05.979Z,99529.38
2023-01-15T17:02:45.850Z,99530.06
2023-01-15T17:05:25.218Z,99535.97
2023-01-15T17:07:54.182Z,99529.88
2023-01-15T17:10:24.340Z,99532.13
2023-01-15T17:12:52.579Z,99537.16
2023-01-15T17:15:38.218Z,99531.06
2023-01-15T17:18:33.727Z,99528.53
2023-01-15T17:21:02.058Z,99532.41
2023-01-15T17:23:34.830Z,99529.53
2023-01-15T17:26:03.513Z,99532.41
2023-01-15T17:28:30.976Z,99518.38
2023-01-15T17:31:03.166Z,99532.13
2023-01-15T17:33:31.651Z,99521.09
2023-01-15T17:35:59.589Z,99527.72
2023-01-15T17:38:27.076Z,99524.00
2023-01-15T17:40:54.555Z,99521.09
2023-01-15T17:43:22.220Z,99519.56
2023-01-15T17:45:49.713Z,99511.16
2023-01-15T17:48:18.732Z,99514.34
2023-01-15T17:50:46.383Z,99513.50
2023-01-15T17:53:13.895Z,99508.97
2023-01-15T17:55:41.726Z,99509.28
2023-01-15T17:58:12.466Z,99501.97
2023-01-15T18:00:40.547Z,99502.53
2023-01-15T18:03:16.459Z,99508.91
2023-01-15T18:05:47.260Z,99501.13
2023-01-15T18:08:14.895Z,99502.81
2023-01-15T18:10:42.437Z,99502.66
2023-01-15T18:13:10.076Z,99509.06
2023-01-15T18:15:37.676Z,99505.00
2023-01-15T18:18:05.408Z,99512.78
2023-01-15T18:20:33.149Z,99516.00
2023-01-15T18:23:02.375Z,99518.47
2023-01-15T18:25:29.864Z,99513.47
2023-01-15T18:27:57.269Z,99528.63
2023-01-15T18:30:24.893Z,99510.75
2023-01-15T18:32:54.974Z,99516.81
2023-01-15T18:35:22.850Z,99516.66
2023-01-15T18:37:50.625Z,99503.66
2023-01-15T18:40:20.504Z,99512.78
2023-01-15T18:42:48.055Z,99501.25
2023-01-15T18:45:16.258Z,99505.34
2023-01-15T18:47:45.229Z,99508.69
2023-01-15T18:50:12.665Z,99504.84
2023-01-15T18:52:40.774Z,99499.97
2023-01-15T18:55:09.148Z,99502.31
2023-01-15T18:57:38.803Z,99507.00
2023-01-15T19:00:08.674Z,99500.44
2023-01-15T19:02:37.108Z,99490.53
2023-01-15T19:05:05.193Z,99501.75
2023-01-15T19:07:33.188Z,99501.13
2023-01-15T19:10:00.607Z,99503.66
2023-01-15T19:12:28.584Z,99501.09
2023-01-15T19:14:58.354Z,99506.31
2023-01-15T19:17:27.052Z,99504.66
2023-01-15T19:19:55.456Z,99501.63
2023-01-15T19:22:23.436Z,99499.56
2023-01-15T19:24:51.398Z,99496.00
2023-01-15T19:27:19.011Z,99495.69
2023-01-15T19:29:46.625Z,99491.50
2023-01-15T19:32:15.741Z,99497.72
2023-01-15T19:34:44.161Z,99488.44
2023-01-15T19:37:11.711Z,99482.84
2023-01-15T19:39:39.413Z,99481.69
2023-01-15T19:42:07.716Z,99483.69
2023-01-15T19:44:35.544Z,99486.41
2023-01-15T19:47:03.083Z,99477.28
2023-01-15T19:49:36.025Z,99474.63
2023-01-15T19:52:03.659Z,99479.50
2023-01-15T19:54:31.420Z,99479.66
2023-01-15T19:56:59.161Z,99479.31
2023-01-15T19:59:27.041Z,99470.56
2023-01-15T20:01:54.662Z,99475.22
2023-01-15T20:04:22.639Z,99465.63
2023-01-15T20:06:53.838Z,99464.78
2023-01-15T20:09:22.344Z,99462.75
2023-01-15T20:11:49.896Z,99460.94
2023-01-15T20:14:17.470Z,99454.38
2023-01-15T20:16:45.158Z,99458.06
2023-01-15T20:19:15.729Z,99460.41
2023-01-15T20:21:44.021Z,99463.66
2023-01-15T20:24:13.134Z,99463.28
2023-01-15T20:26:40.877Z,99465.00
2023-01-15T20:29:08.896Z,99481.69
2023-01-15T20:31:36.579Z,99472.94
2023-01-15T20:34:04.276Z,99472.56
2023-01-15T20:36:31.805Z,99467.50
2023-01-15T20:38:59.425Z,99468.19
2023-01-15T20:41:29.008Z,99462.78
2023-01-15T20:43:56.484Z,99467.88
2023-01-15T20:46:23.922Z,99468.69
2023-01-15T20:48:51.452Z,99470.91
2023-01-15T20:51:19.313Z,99473.06
2023-01-15T20:53:47.077Z,99475.59
2023-01-15T20:56:16.073Z,99474.44
2023-01-15T20:58:45.486Z,99474.94
2023-01-15T21:01:13.658Z,99478.66
2023-01-15T21:03:41.380Z,99467.53
2023-01-15T21:06:09.335Z,99469.22
2023-01-15T21:08:36.958Z,99461.59
2023-01-15T21:11:05.260Z,99465.16
2023-01-15T21:13:32.823Z,99451.16
2023-01-15T21:16:04.439Z,99450.97
2023-01-15T21:18:34.586Z,99461.13
2023-01-15T21:21:08.340Z,99460.28
2023-01-15T21:23:36.180Z,99477.31
2023-01-15T21:26:03.966Z,99473.44
2023-01-15T21:28:31.707Z,99478.34
2023-01-15T21:30:59.628Z,99473.97
2023-01-15T21:33:28.780Z,99479.53
2023-01-15T21:35:56.688Z,99484.25
2023-01-15T21:38:24.682Z,99492.84
2023-01-15T21:40:53.189Z,99495.91
2023-01-15T21:43:21.122Z,99486.97
2023-01-15T21:45:49.007Z,99493.22
2023-01-15T21:48:16.471Z,99493.56
2023-01-15T21:50:45.613Z,99509.06
2023-01-15T21:53:13.204Z,99507.72
2023-01-15T21:55:48.030Z,99497.94
2023-01-15T21:58:15.657Z,99496.09
2023-01-15T22:00:43.811Z,99501.31
2023-01-15T22:03:11.315Z,99498.63
2023-01-15T22:05:39.075Z,99500.31
2023-01-15T22:08:09.111Z,99502.16
2023-01-15T22:10:36.428Z,99498.63
2023-01-15T22:13:03.934Z,99508.06
2023-01-15T22:15:31.531Z,99507.72
2023-01-15T22:17:59.082Z,99506.03
2023-01-15T22:20:26.819Z,99514.97
2023-01-15T22:22:54.265Z,99509.59
2023-01-15T22:25:23.346Z,99502.31
2023-01-15T22:27:51.135Z,99524.75
2023-01-15T22:30:18.610Z,99518.50
2023-01-15T22:32:46.326Z,99532.88
2023-01-15T22:35:13.955Z,99533.72
2023-01-15T22:37:41.555Z,99536.75
2023-01-15T22:40:11.126Z,99536.75
2023-01-15T22:42:40.591Z,99534.72
2023-01-15T22:45:08.944Z,99534.91
2023-01-15T22:47:36.588Z,99536.94
2023-01-15T22:50:04.439Z,99539.44
2023-01-15T22:52:32.157Z,99540.09
2023-01-15T22:54:59.676Z,99548.41
2023-01-15T22:57:27.662Z,99537.25
2023-01-15T22:59:57.369Z,99543.16
2023-01-15T23:02:24.825Z,99535.91
2023-01-15T23:04:52.335Z,99536.59
2023-01-15T23:07:19.782Z,99543.81
2023-01-15T23:09:47.332Z,99541.81
2023-01-15T23:12:15.159Z,99533.53
2023-01-15T23:14:43.261Z,99536.41
2023-01-15T23:17:12.212Z,99537.06
2023-01-15T23:19:39.704Z,99533.19
2023-01-15T23:22:07.193Z,99544.66
2023-01-15T23:24:35.259Z,99539.78
2023-01-15T23:27:02.857Z,99540.78
2023-01-15T23:29:30.314Z,99542.13
2023-01-15T23:31:57.800Z,99546.69
2023-01-15T23:34:27.221Z,99547.50
2023-01-15T23:36:54.770Z,99543.31
2023-01-15T23:39:22.434Z,99544.66
2023-01-15T23:41:50.367Z,99545.84
2023-01-15T23:44:20.344Z,99551.91
2023-01-15T23:46:48.239Z,99561.88
2023-01-15T23:49:16.028Z,99563.34
2023-01-15T23:51:45.239Z,99560.66
2023-01-15T23:54:13.096Z,99558.69
2023-01-15T23:56:41.155Z,99558.84
2023-01-15T23:59:08.851Z,99573.69
